createdAt,value
2023-03-20T00:00:23.442Z,494.00
2023-03-20T01:36:32.955Z,493.00
2023-03-20T01:40:33.061Z,492.00
2023-03-20T01:44:32.795Z,490.00
2023-03-20T01:48:32.671Z,493.00
2023-03-20T01:52:32.556Z,489.00
2023-03-20T01:56:32.449Z,483.00
2023-03-20T02:00:32.371Z,488.00
2023-03-20T02:04:32.236Z,484.00
2023-03-20T02:08:32.119Z,491.00
2023-03-20T02:12:32.047Z,490.00
2023-03-20T02:16:31.995Z,482.00
2023-03-20T02:20:31.872Z,486.00
2023-03-20T02:24:31.783Z,490.00
2023-03-20T02:28:31.694Z,484.00
2023-03-20T02:32:31.636Z,483.00
2023-03-20T02:36:31.548Z,487.00
2023-03-20T02:40:31.446Z,492.00
2023-03-20T02:44:31.375Z,486.00
2023-03-20T02:48:31.309Z,485.00
2023-03-20T02:52:31.182Z,486.00
2023-03-20T02:56:31.088Z,484.00
2023-03-20T03:00:30.997Z,483.00
2023-03-20T03:04:30.994Z,478.00
2023-03-20T03:08:30.895Z,484.00
2023-03-20T03:12:30.816Z,480.00
2023-03-20T03:16:30.726Z,482.00
2023-03-20T03:20:30.653Z,483.00
2023-03-20T03:24:40.277Z,481.00
2023-03-20T03:28:30.432Z,484.00
2023-03-20T03:32:30.369Z,482.00
2023-03-20T03:36:30.271Z,477.00
2023-03-20T03:40:30.139Z,479.00
2023-03-20T03:44:30.046Z,481.00
2023-03-20T03:48:29.950Z,480.00
2023-03-20T03:52:29.879Z,476.00
2023-03-20T03:56:29.735Z,478.00
2023-03-20T04:00:29.621Z,478.00
2023-03-20T04:04:29.573Z,478.00
2023-03-20T04:08:29.424Z,475.00
2023-03-20T04:12:29.239Z,481.00
2023-03-20T04:16:29.185Z,480.00
2023-03-20T04:20:29.066Z,480.00
2023-03-20T04:24:28.934Z,481.00
2023-03-20T04:28:28.787Z,478.00
2023-03-20T04:32:28.665Z,482.00
2023-03-20T04:36:28.559Z,479.00
2023-03-20T04:40:28.452Z,477.00
2023-03-20T04:44:28.324Z,481.00
2023-03-20T04:48:28.174Z,487.00
2023-03-20T04:52:28.046Z,483.00
2023-03-20T04:56:27.948Z,480.00
2023-03-20T05:00:27.813Z,479.00
2023-03-20T05:04:27.770Z,483.00
2023-03-20T05:08:27.571Z,481.00
2023-03-20T05:12:27.477Z,480.00
2023-03-20T05:16:27.415Z,476.00
2023-03-20T05:20:27.263Z,476.00
2023-03-20T05:24:27.131Z,474.00
2023-03-20T05:28:26.994Z,476.00
2023-03-20T05:32:26.880Z,479.00
2023-03-20T05:36:26.760Z,483.00
2023-03-20T05:40:26.656Z,483.00
2023-03-20T05:44:26.539Z,484.00
2023-03-20T05:48:26.432Z,480.00
2023-03-20T05:52:26.303Z,477.00
2023-03-20T05:56:26.262Z,473.00
2023-03-20T06:00:26.166Z,471.00
2023-03-20T06:04:26.012Z,473.00
2023-03-20T06:08:25.906Z,474.00
2023-03-20T06:12:26.166Z,477.00
2023-03-20T06:16:26.252Z,481.00
2023-03-20T06:20:26.258Z,479.00
2023-03-20T06:24:25.465Z,486.00
2023-03-20T06:28:25.667Z,511.00
2023-03-20T06:32:25.719Z,522.00
2023-03-20T06:36:25.704Z,528.00
2023-03-20T06:40:25.562Z,534.00
2023-03-20T06:44:25.214Z,539.00
2023-03-20T06:48:25.416Z,556.00
2023-03-20T06:52:25.202Z,611.00
2023-03-20T06:56:25.256Z,649.00
2023-03-20T07:00:25.202Z,691.00
2023-03-20T07:04:25.222Z,683.00
2023-03-20T07:08:24.694Z,669.00
2023-03-20T07:12:24.764Z,667.00
2023-03-20T07:16:26.997Z,659.00
2023-03-20T07:20:25.057Z,659.00
2023-03-20T07:24:24.693Z,655.00
2023-03-20T07:28:24.754Z,655.00
2023-03-20T07:32:24.115Z,653.00
2023-03-20T07:36:24.263Z,652.00
2023-03-20T07:40:23.864Z,650.00
2023-03-20T07:44:24.380Z,655.00
2023-03-20T07:48:23.699Z,649.00
2023-03-20T07:52:23.822Z,641.00
2023-03-20T07:56:23.344Z,639.00
2023-03-20T08:00:23.695Z,639.00
2023-03-20T08:04:23.326Z,638.00
2023-03-20T08:08:23.253Z,634.00
2023-03-20T08:12:23.200Z,632.00
2023-03-20T08:16:23.300Z,633.00
2023-03-20T08:20:22.778Z,634.00
2023-03-20T08:24:22.883Z,633.00
2023-03-20T08:28:30.861Z,632.00
2023-03-20T08:32:22.711Z,631.00
2023-03-20T08:36:22.257Z,651.00
2023-03-20T08:40:22.327Z,737.00
2023-03-20T08:44:22.256Z,818.00
2023-03-20T08:48:21.752Z,913.00
2023-03-20T08:52:21.720Z,977.00
2023-03-20T08:56:22.250Z,1064.00
2023-03-20T09:00:21.740Z,1126.00
2023-03-20T09:04:22.447Z,1195.00
2023-03-20T09:08:21.754Z,1279.00
2023-03-20T09:12:21.715Z,1344.00
2023-03-20T09:16:21.802Z,1412.00
2023-03-20T09:20:22.253Z,1466.00
2023-03-20T09:24:22.261Z,1532.00
2023-03-20T09:28:22.250Z,1601.00
2023-03-20T09:32:22.259Z,1662.00
2023-03-20T09:36:21.797Z,1734.00
2023-03-20T09:40:21.821Z,1796.00
2023-03-20T09:44:21.761Z,1879.00
2023-03-20T09:48:21.753Z,1941.00
2023-03-20T09:52:21.742Z,1790.00
2023-03-20T09:56:21.743Z,1521.00
2023-03-20T10:00:21.898Z,1676.00
2023-03-20T10:04:21.823Z,1708.00
2023-03-20T10:08:21.784Z,1713.00
2023-03-20T10:12:21.416Z,1709.00
2023-03-20T10:16:21.816Z,1717.00
2023-03-20T10:20:21.747Z,1740.00
2023-03-20T10:24:21.280Z,1749.00
2023-03-20T10:28:21.088Z,1744.00
2023-03-20T10:32:21.276Z,1464.00
2023-03-20T10:36:21.269Z,1386.00
2023-03-20T10:40:21.259Z,1420.00
2023-03-20T10:44:21.793Z,1310.00
2023-03-20T10:48:21.836Z,1355.00
2023-03-20T10:52:21.484Z,1315.00
2023-03-20T10:56:21.786Z,1226.00
2023-03-20T11:00:21.285Z,1169.00
2023-03-20T11:04:21.477Z,1254.00
2023-03-20T11:08:22.282Z,1236.00
2023-03-20T11:12:21.291Z,1234.00
2023-03-20T11:16:21.356Z,1054.00
2023-03-20T11:20:20.812Z,1019.00
2023-03-20T11:24:20.504Z,960.00
2023-03-20T11:28:20.778Z,923.00
2023-03-20T11:32:20.778Z,883.00
2023-03-20T11:36:20.307Z,848.00
2023-03-20T11:40:20.290Z,818.00
2023-03-20T11:44:20.297Z,799.00
2023-03-20T11:48:19.781Z,770.00
2023-03-20T11:52:19.815Z,743.00
2023-03-20T11:56:19.794Z,719.00
2023-03-20T12:00:19.503Z,702.00
2023-03-20T12:04:19.787Z,676.00
2023-03-20T12:08:19.816Z,667.00
2023-03-20T12:12:19.831Z,667.00
2023-03-20T12:16:19.846Z,692.00
2023-03-20T12:20:19.351Z,702.00
2023-03-20T12:24:19.375Z,708.00
2023-03-20T12:28:19.329Z,712.00
2023-03-20T12:32:19.140Z,723.00
2023-03-20T12:36:19.352Z,737.00
2023-03-20T12:40:19.356Z,734.00
2023-03-20T12:44:19.819Z,731.00
2023-03-20T12:48:19.840Z,726.00
2023-03-20T12:52:19.929Z,729.00
2023-03-20T12:56:19.843Z,729.00
2023-03-20T13:00:19.840Z,736.00
2023-03-20T13:04:19.339Z,738.00
2023-03-20T13:08:19.344Z,743.00
2023-03-20T13:12:19.344Z,739.00
2023-03-20T13:16:18.993Z,732.00
2023-03-20T13:20:18.819Z,737.00
2023-03-20T13:24:18.819Z,737.00
2023-03-20T13:28:18.866Z,737.00
2023-03-20T13:32:18.853Z,735.00
2023-03-20T13:36:18.363Z,731.00
2023-03-20T13:40:18.366Z,731.00
2023-03-20T13:44:18.407Z,727.00
2023-03-20T13:48:18.387Z,731.00
2023-03-20T13:52:17.801Z,726.00
2023-03-20T13:56:17.871Z,728.00
2023-03-20T14:00:17.926Z,725.00
2023-03-20T14:04:17.941Z,724.00
2023-03-20T14:08:17.864Z,722.00
2023-03-20T14:12:17.340Z,721.00
2023-03-20T14:16:17.431Z,724.00
2023-03-20T14:20:17.420Z,719.00
2023-03-20T14:24:17.851Z,715.00
2023-03-20T14:28:17.873Z,717.00
2023-03-20T14:32:17.722Z,716.00
2023-03-20T14:36:17.842Z,716.00
2023-03-20T14:40:17.851Z,716.00
2023-03-20T14:44:18.357Z,716.00
2023-03-20T14:48:18.453Z,718.00
2023-03-20T14:52:18.388Z,720.00
2023-03-20T14:56:17.864Z,717.00
2023-03-20T15:00:18.372Z,717.00
2023-03-20T15:04:18.526Z,722.00
2023-03-20T15:08:18.394Z,717.00
2023-03-20T15:12:18.069Z,719.00
2023-03-20T15:16:18.375Z,712.00
2023-03-20T15:20:18.264Z,712.00
2023-03-20T15:24:18.360Z,709.00
2023-03-20T15:28:19.857Z,712.00
2023-03-20T15:32:18.890Z,710.00
2023-03-20T15:36:18.169Z,714.00
2023-03-20T15:40:18.364Z,716.00
2023-03-20T15:44:18.894Z,713.00
2023-03-20T15:48:17.938Z,711.00
2023-03-20T15:52:17.836Z,711.00
2023-03-20T15:56:19.252Z,713.00
2023-03-20T16:00:17.630Z,709.00
2023-03-20T16:04:17.891Z,708.00
2023-03-20T16:08:18.277Z,710.00
2023-03-20T16:12:17.392Z,709.00
2023-03-20T16:16:17.456Z,707.00
2023-03-20T16:20:17.413Z,707.00
2023-03-20T16:24:17.457Z,703.00
2023-03-20T16:28:16.830Z,703.00
2023-03-20T16:32:16.735Z,702.00
2023-03-20T16:36:16.642Z,703.00
2023-03-20T16:40:16.597Z,701.00
2023-03-20T16:44:16.419Z,704.00
2023-03-20T16:48:16.282Z,700.00
2023-03-20T16:52:16.172Z,700.00
2023-03-20T16:56:16.173Z,703.00
2023-03-20T17:00:16.154Z,701.00
2023-03-20T17:04:16.276Z,695.00
2023-03-20T17:08:16.350Z,699.00
2023-03-20T17:12:16.926Z,693.00
2023-03-20T17:16:16.606Z,694.00
2023-03-20T17:20:16.596Z,695.00
2023-03-20T17:24:16.709Z,688.00
2023-03-20T17:28:16.722Z,691.00
2023-03-20T17:32:16.719Z,694.00
2023-03-20T17:36:16.884Z,699.00
2023-03-20T17:40:16.939Z,696.00
2023-03-20T17:44:17.041Z,692.00
2023-03-20T17:48:17.093Z,691.00
2023-03-20T17:52:17.078Z,690.00
2023-03-20T17:56:17.146Z,689.00
2023-03-20T18:00:17.318Z,683.00
2023-03-20T18:04:17.270Z,682.00
2023-03-20T18:08:17.239Z,681.00
2023-03-20T18:12:17.227Z,678.00
2023-03-20T18:16:17.420Z,683.00
2023-03-20T18:20:17.214Z,681.00
2023-03-20T18:24:17.236Z,680.00
2023-03-20T18:28:17.246Z,687.00
2023-03-20T18:32:17.260Z,686.00
2023-03-20T18:36:17.273Z,679.00
2023-03-20T18:40:17.238Z,675.00
2023-03-20T18:44:17.150Z,675.00
2023-03-20T18:48:17.190Z,665.00
2023-03-20T18:52:17.192Z,665.00
2023-03-20T18:56:17.115Z,669.00
2023-03-20T19:00:17.171Z,670.00
2023-03-20T19:04:17.283Z,666.00
2023-03-20T19:08:17.158Z,665.00
2023-03-20T19:12:17.244Z,672.00
2023-03-20T19:16:17.229Z,668.00
2023-03-20T19:20:17.064Z,668.00
2023-03-20T19:24:17.045Z,660.00
2023-03-20T19:28:20.425Z,660.00
2023-03-20T19:32:17.126Z,656.00
2023-03-20T19:36:17.478Z,657.00
2023-03-20T19:40:17.130Z,654.00
2023-03-20T19:44:17.094Z,661.00
2023-03-20T19:48:17.054Z,662.00
2023-03-20T19:52:17.116Z,660.00
2023-03-20T19:56:16.851Z,654.00
2023-03-20T20:04:16.710Z,658.00
2023-03-20T20:08:28.598Z,657.00
2023-03-20T20:12:16.489Z,655.00
2023-03-20T20:16:16.379Z,652.00
2023-03-20T20:20:16.606Z,654.00
2023-03-20T20:24:16.231Z,654.00
2023-03-20T20:28:15.988Z,652.00
2023-03-20T20:32:15.867Z,650.00
2023-03-20T20:40:15.642Z,651.00
2023-03-20T20:44:17.415Z,647.00
2023-03-20T20:48:15.318Z,641.00
2023-03-20T20:52:15.201Z,636.00
2023-03-20T20:56:15.115Z,641.00
2023-03-20T21:04:33.063Z,649.00
2023-03-20T21:08:34.023Z,647.00
2023-03-20T21:12:45.232Z,652.00
2023-03-20T21:16:33.938Z,649.00
2023-03-20T21:20:33.890Z,651.00
2023-03-20T21:24:34.891Z,645.00
2023-03-20T21:28:33.767Z,637.00
2023-03-20T21:32:33.670Z,633.00
2023-03-20T21:36:35.181Z,633.00
2023-03-20T21:40:33.776Z,635.00
2023-03-20T21:45:17.891Z,634.00
2023-03-20T21:49:16.311Z,636.00
2023-03-20T21:57:28.794Z,631.00
2023-03-20T22:01:23.131Z,625.00
2023-03-20T22:13:21.800Z,626.00
2023-03-20T22:17:36.466Z,626.00
2023-03-20T22:33:12.620Z,627.00
2023-03-20T22:44:59.870Z,624.00
2023-03-20T22:48:32.534Z,622.00
2023-03-20T22:52:45.873Z,612.00
2023-03-20T22:56:32.378Z,614.00
2023-03-20T23:00:32.292Z,613.00
2023-03-20T23:04:32.309Z,610.00
2023-03-20T23:08:36.097Z,608.00
2023-03-20T23:12:32.170Z,602.00
2023-03-20T23:16:32.098Z,609.00
2023-03-20T23:20:32.000Z,606.00
2023-03-20T23:24:31.891Z,607.00
2023-03-20T23:28:31.838Z,598.00
2023-03-20T23:32:31.762Z,601.00
2023-03-20T23:36:37.831Z,600.00
2023-03-20T23:40:31.618Z,596.00
2023-03-20T23:44:31.550Z,594.00
2023-03-20T23:48:31.468Z,595.00
2023-03-20T23:52:32.691Z,596.00
2023-03-20T23:56:31.309Z,593.00
